Time;durP1;ratioP1;P1;durP2;ratioP2;P2;SDS_P1;SDS_P2;PMS_P1;PMS_P2;Temp;Humidity;BMP_temperature;BMP_pressure;BME280_temperature;BME280_humidity;BME280_pressure;Samples;Min_cycle;Max_cycle;Signal;HPM_P1;HPM_P2
2021/11/02 00:01:32;;;;;;;3.53;2.57;;;;;6.20;99438.00;;;;10516625;28;20204;-78
2021/11/02 00:06:36;;;;;;;7.03;2.40;;;;;6.10;99437.00;;;;10533502;28;20222;-78
2021/11/02 00:11:42;;;;;;;5.07;2.30;;;;;6.10;99431.00;;;;10551081;28;20239;-78
2021/11/02 00:16:48;;;;;;;8.13;2.90;;;;;6.10;99426.00;;;;10517176;28;20200;-77
2021/11/02 00:21:52;;;;;;;5.63;2.47;;;;;6.00;99427.00;;;;10533046;28;20196;-78
2021/11/02 00:26:54;;;;;;;4.13;2.70;;;;;6.00;99417.00;;;;10532779;28;20287;-78
2021/11/02 00:31:56;;;;;;;4.40;2.83;;;;;6.00;99426.00;;;;10549671;28;20210;-78
2021/11/02 00:36:58;;;;;;;3.93;2.93;;;;;6.00;99427.00;;;;10532308;28;20242;-77
2021/11/02 00:42:00;;;;;;;5.73;2.63;;;;;5.90;99420.00;;;;10515482;28;20195;-77
2021/11/02 00:47:06;;;;;;;6.47;3.00;;;;;5.90;99425.00;;;;10532244;28;20262;-79
2021/11/02 00:52:08;;;;;;;5.60;2.83;;;;;5.90;99416.00;;;;10532467;28;20193;-78
2021/11/02 00:57:10;;;;;;;4.90;3.20;;;;;5.90;99413.00;;;;10532023;28;20188;-78
2021/11/02 01:02:12;;;;;;;5.13;3.30;;;;;5.90;99416.00;;;;10478557;28;20201;-78
2021/11/02 01:07:15;;;;;;;4.87;3.23;;;;;5.90;99407.00;;;;10505331;28;20230;-78
2021/11/02 01:12:17;;;;;;;6.73;3.07;;;;;5.80;99404.00;;;;10489722;28;20643;-79
2021/11/02 01:17:21;;;;;;;5.53;2.83;;;;;5.80;99402.00;;;;10490228;28;20193;-78
2021/11/02 01:22:22;;;;;;;8.87;3.40;;;;;5.70;99402.00;;;;10505741;28;20283;-78
2021/11/02 01:27:24;;;;;;;7.03;3.40;;;;;5.70;99399.00;;;;10488123;28;20197;-78
2021/11/02 01:32:27;;;;;;;8.40;3.90;;;;;5.70;99402.00;;;;10489190;28;20228;-78
2021/11/02 01:37:31;;;;;;;8.23;4.40;;;;;5.70;99397.00;;;;10505221;28;20197;-77
2021/11/02 01:42:39;;;;;;;8.43;4.67;;;;;5.80;99399.00;;;;10489553;28;20238;-78
2021/11/02 01:47:47;;;;;;;8.10;4.10;;;;;5.80;99395.00;;;;10488733;28;20209;-78
2021/11/02 01:52:55;;;;;;;10.63;5.17;;;;;5.80;99401.00;;;;10505836;28;20189;-78
2021/11/02 01:57:57;;;;;;;7.47;5.40;;;;;5.80;99399.00;;;;10489184;28;20525;-77
2021/11/02 02:03:32;;;;;;;6.23;4.67;;;;;5.80;99396.00;;;;10530958;28;20216;-78
2021/11/02 02:09:17;;;;;;;8.53;6.13;;;;;5.90;99397.00;;;;10529452;28;20199;-78
2021/11/02 02:14:36;;;;;;;9.80;6.73;;;;;5.90;99396.00;;;;10535011;28;20550;-78
2021/11/02 02:20:00;;;;;;;12.70;7.10;;;;;6.10;99404.00;;;;10537672;28;20196;-78
2021/11/02 02:25:59;;;;;;;13.50;7.20;;;;;6.20;99387.00;;;;10520620;28;20212;-78
2021/11/02 02:31:06;;;;;;;12.27;7.50;;;;;6.30;99390.00;;;;10535986;28;20651;-78
2021/11/02 02:36:15;;;;;;;14.90;7.77;;;;;6.40;99381.00;;;;10537558;28;20251;-78
2021/11/02 02:41:34;;;;;;;11.63;7.50;;;;;6.40;99376.00;;;;10538496;28;20215;-78
2021/11/02 02:46:41;;;;;;;16.47;8.13;;;;;6.40;99355.00;;;;10552952;28;20204;-78
2021/11/02 02:51:43;;;;;;;12.57;7.60;;;;;6.40;99364.00;;;;10553429;28;20278;-78
2021/11/02 02:56:48;;;;;;;14.27;8.87;;;;;6.40;99359.00;;;;10552659;28;20585;-78
2021/11/02 03:01:53;;;;;;;15.00;7.70;;;;;6.40;99362.00;;;;10536175;28;20226;-78
2021/11/02 03:07:01;;;;;;;15.17;8.27;;;;;6.40;99362.00;;;;10535992;28;20240;-78
2021/11/02 03:12:06;;;;;;;13.00;8.30;;;;;6.40;99365.00;;;;10535779;28;20663;-77
2021/11/02 03:17:13;;;;;;;16.83;7.27;;;;;6.40;99361.00;;;;10552084;28;20185;-77
2021/11/02 03:49:24;;;;;;;13.97;8.10;;;;;6.50;99352.00;;;;10525604;28;20248;-78
2021/11/02 06:28:49;;;;;;;8.03;6.43;;;;;7.50;99350.00;;;;10553962;28;20196;-79
2021/11/02 06:34:07;;;;;;;14.13;7.33;;;;;7.60;99362.00;;;;10553908;28;20169;-78
2021/11/02 06:51:00;;;;;;;13.00;7.03;;;;;7.70;99374.00;;;;10552785;28;20212;-78
2021/11/02 06:55:58;;;;;;;8.90;6.77;;;;;7.70;99373.00;;;;10539630;28;20196;-78
2021/11/02 07:17:35;;;;;;;12.57;6.90;;;;;8.10;99373.00;;;;10535439;28;20188;-78
2021/11/02 08:49:42;;;;;;;13.40;8.10;;;;;9.20;99403.00;;;;10531600;28;20212;-79
2021/11/02 08:54:48;;;;;;;12.30;8.23;;;;;9.20;99403.00;;;;10531677;28;20188;-79
2021/11/02 08:59:52;;;;;;;10.73;8.33;;;;;9.30;99398.00;;;;10548416;28;20543;-79
2021/11/02 09:05:03;;;;;;;13.37;8.63;;;;;9.40;99400.00;;;;10514682;28;20245;-79
2021/11/02 09:10:19;;;;;;;12.93;7.83;;;;;9.70;99402.00;;;;10514788;28;20189;-79
2021/11/02 09:15:27;;;;;;;10.83;7.70;;;;;10.10;99405.00;;;;10530838;28;20187;-79
2021/11/02 09:20:29;;;;;;;12.70;7.80;;;;;10.30;99403.00;;;;10547121;28;20269;-79
2021/11/02 09:25:32;;;;;;;12.20;6.67;;;;;10.30;99412.00;;;;10546274;28;20220;-78
2021/11/02 09:30:34;;;;;;;12.80;7.60;;;;;10.20;99415.00;;;;10513628;28;20233;-78
2021/11/02 09:35:39;;;;;;;9.30;7.40;;;;;10.40;99416.00;;;;10530871;28;20187;-79
2021/11/02 09:41:01;;;;;;;9.20;6.07;;;;;10.40;99416.00;;;;10512404;28;20234;-78
2021/11/02 09:46:18;;;;;;;9.53;6.07;;;;;10.30;99410.00;;;;10488898;28;20231;-78
2021/11/02 09:51:50;;;;;;;7.27;5.67;;;;;9.90;99424.00;;;;10505058;28;20196;-78
2021/11/02 09:57:20;;;;;;;8.00;5.83;;;;;9.50;99411.00;;;;10488489;28;20185;-78
2021/11/02 10:02:39;;;;;;;11.10;6.07;;;;;9.30;99418.00;;;;10497592;28;20205;-78
2021/11/02 10:08:00;;;;;;;7.27;6.33;;;;;9.20;99422.00;;;;10488022;28;20278;-78
2021/11/02 10:13:27;;;;;;;10.47;5.10;;;;;9.30;99425.00;;;;10505293;28;20208;-78
2021/11/02 10:18:30;;;;;;;6.20;5.27;;;;;9.30;99419.00;;;;10501149;28;20201;-77
2021/11/02 10:23:47;;;;;;;8.30;5.43;;;;;9.30;99410.00;;;;10504449;28;20218;-77
2021/11/02 10:29:17;;;;;;;6.47;5.87;;;;;9.50;99418.00;;;;10529365;28;20528;-77
2021/11/02 10:34:28;;;;;;;8.67;6.40;;;;;9.50;99423.00;;;;10529174;28;20233;-78
2021/11/02 10:39:41;;;;;;;9.47;7.33;;;;;9.70;99418.00;;;;10536125;28;20616;-78
2021/11/02 10:44:53;;;;;;;12.07;6.30;;;;;9.70;99425.00;;;;10569979;28;20212;-78
2021/11/02 10:49:58;;;;;;;10.17;7.30;;;;;10.00;99434.00;;;;10536544;28;20295;-78
2021/11/02 10:55:25;;;;;;;9.90;7.23;;;;;10.40;99436.00;;;;10554290;28;20181;-78
2021/11/02 11:00:28;;;;;;;8.27;6.60;;;;;10.70;99455.00;;;;10535975;28;20197;-78
2021/11/02 11:05:32;;;;;;;12.17;6.90;;;;;10.50;99469.00;;;;10535694;28;20260;-78
2021/11/02 11:10:35;;;;;;;7.17;6.47;;;;;10.30;99458.00;;;;10536440;28;20250;-77
2021/11/02 11:15:40;;;;;;;8.10;6.90;;;;;10.50;99453.00;;;;10536207;28;20188;-77
2021/11/02 11:20:43;;;;;;;7.73;6.27;;;;;10.40;99442.00;;;;10519423;28;20176;-77
2021/11/02 11:25:50;;;;;;;6.17;5.53;;;;;10.50;99440.00;;;;10518011;28;20212;-77
2021/11/02 11:30:54;;;;;;;8.67;5.73;;;;;11.30;99462.00;;;;10535138;28;20614;-77
2021/11/02 11:36:04;;;;;;;7.17;5.07;;;;;11.50;99471.00;;;;10518559;28;20194;-77
2021/11/02 11:41:09;;;;;;;6.50;4.60;;;;;11.60;99480.00;;;;10534728;28;20284;-77
2021/11/02 11:46:12;;;;;;;5.70;4.70;;;;;12.00;99475.00;;;;10551046;28;20212;-77
2021/11/02 11:51:26;;;;;;;6.03;3.90;;;;;12.40;99488.00;;;;10517743;28;20563;-78
2021/11/02 11:56:33;;;;;;;6.17;3.73;;;;;12.30;99481.00;;;;10524808;28;20217;-78
2021/11/02 12:02:32;;;;;;;3.60;3.30;;;;;12.10;99479.00;;;;10508211;28;20195;-78
2021/11/02 12:07:45;;;;;;;4.87;2.90;;;;;11.70;99484.00;;;;10320774;28;20246;-77
2021/11/02 12:12:49;;;;;;;6.10;3.10;;;;;11.40;99488.00;;;;10485248;28;20197;-78
2021/11/02 12:17:52;;;;;;;4.03;3.53;;;;;11.40;99478.00;;;;10524508;28;20212;-78
2021/11/02 12:23:02;;;;;;;3.03;2.70;;;;;11.30;99473.00;;;;10507859;28;20200;-78
2021/11/02 12:28:29;;;;;;;4.37;3.57;;;;;11.30;99477.00;;;;10511414;28;20686;-77
2021/11/02 12:33:33;;;;;;;3.27;2.80;;;;;11.30;99470.00;;;;10515956;28;20188;-77
2021/11/02 12:38:39;;;;;;;3.67;2.90;;;;;11.10;99477.00;;;;10532216;28;20215;-77
2021/11/02 12:43:43;;;;;;;3.37;2.30;;;;;10.90;99468.00;;;;10515112;28;20618;-77
2021/11/02 12:48:46;;;;;;;3.10;2.73;;;;;10.70;99466.00;;;;10514545;28;20212;-77
2021/11/02 12:53:52;;;;;;;5.30;2.90;;;;;10.50;99464.00;;;;10548089;28;20237;-77
2021/11/02 12:59:12;;;;;;;4.00;3.50;;;;;10.10;99450.00;;;;10530175;28;20208;-78
2021/11/02 13:04:17;;;;;;;5.17;3.60;;;;;10.00;99444.00;;;;10546664;28;20227;-78
2021/11/02 13:09:20;;;;;;;4.97;3.83;;;;;10.00;99442.00;;;;10530417;28;20215;-78
2021/11/02 13:14:43;;;;;;;6.00;4.07;;;;;10.20;99447.00;;;;10547605;28;20242;-78
2021/11/02 13:19:50;;;;;;;4.20;3.80;;;;;10.50;99446.00;;;;10547444;28;20192;-78
2021/11/02 13:24:56;;;;;;;6.10;4.00;;;;;10.60;99452.00;;;;10530480;28;20208;-78
2021/11/02 13:30:24;;;;;;;6.10;4.60;;;;;10.70;99439.00;;;;10547090;28;20257;-78
2021/11/02 13:35:55;;;;;;;4.80;4.30;;;;;10.80;99449.00;;;;10530770;28;20188;-78
2021/11/02 13:41:16;;;;;;;6.63;4.37;;;;;11.00;99457.00;;;;10530591;28;20173;-78
2021/11/02 13:46:21;;;;;;;7.80;4.17;;;;;11.50;99458.00;;;;10530813;28;20226;-78
2021/11/02 13:51:24;;;;;;;6.73;5.40;;;;;12.20;99468.00;;;;10547442;28;20290;-77
2021/11/02 13:56:29;;;;;;;7.53;5.70;;;;;13.00;99481.00;;;;10513548;28;20578;-78
2021/11/02 14:01:36;;;;;;;10.27;5.40;;;;;13.50;99475.00;;;;10546410;28;20200;-77
2021/11/02 14:06:44;;;;;;;7.03;5.00;;;;;13.00;99489.00;;;;10529512;28;20219;-78
2021/11/02 14:11:46;;;;;;;7.57;4.97;;;;;12.20;99485.00;;;;10532737;28;20257;-78
2021/11/02 14:16:48;;;;;;;7.13;4.47;;;;;11.60;99478.00;;;;10521320;28;20192;-78
2021/11/02 14:21:51;;;;;;;5.90;4.13;;;;;11.00;99483.00;;;;10555002;28;20222;-78
2021/11/02 14:26:53;;;;;;;9.50;5.03;;;;;10.70;99467.00;;;;10553953;28;20907;-78
2021/11/02 14:31:59;;;;;;;5.60;4.87;;;;;10.60;99476.00;;;;10553742;28;20593;-78
2021/11/02 14:37:47;;;;;;;5.87;5.27;;;;;10.70;99473.00;;;;10536764;28;20199;-77
2021/11/02 14:42:50;;;;;;;8.60;5.63;;;;;10.80;99474.00;;;;10543077;28;20204;-77
2021/11/02 14:47:52;;;;;;;8.50;5.30;;;;;10.70;99475.00;;;;10536323;28;20220;-78
2021/11/02 14:53:12;;;;;;;9.10;4.83;;;;;10.70;99465.00;;;;10537317;28;20218;-78
2021/11/02 14:58:39;;;;;;;6.47;4.67;;;;;11.50;99465.00;;;;10569937;28;20213;-77
2021/11/02 15:03:58;;;;;;;8.60;6.40;;;;;11.30;99468.00;;;;10519617;28;20616;-77
2021/11/02 15:09:12;;;;;;;5.63;4.70;;;;;11.00;99463.00;;;;10536963;28;20207;-78
2021/11/02 15:14:28;;;;;;;5.00;4.50;;;;;10.60;99472.00;;;;10536075;28;20238;-78
2021/11/02 15:19:32;;;;;;;9.17;4.23;;;;;10.20;99470.00;;;;10552193;28;20192;-78
2021/11/02 15:24:43;;;;;;;6.23;4.40;;;;;9.90;99468.00;;;;10506276;28;20220;-78
2021/11/02 15:29:53;;;;;;;6.17;4.07;;;;;9.70;99461.00;;;;10509496;28;20191;-78
2021/11/02 15:35:02;;;;;;;10.20;4.53;;;;;9.60;99457.00;;;;10510232;28;20197;-77
2021/11/02 15:40:11;;;;;;;8.60;4.57;;;;;9.40;99459.00;;;;10510099;28;20215;-78
2021/11/02 15:45:18;;;;;;;6.63;3.83;;;;;9.20;99457.00;;;;10509718;28;20640;-77
2021/11/02 15:50:23;;;;;;;9.00;4.83;;;;;9.00;99456.00;;;;10526462;28;20946;-78
2021/11/02 15:55:27;;;;;;;7.43;4.17;;;;;8.80;99459.00;;;;10492456;28;20652;-78
2021/11/02 16:00:34;;;;;;;6.23;4.10;;;;;8.60;99457.00;;;;10526385;28;20242;-78
2021/11/02 16:05:38;;;;;;;5.37;3.40;;;;;8.50;99453.00;;;;10509095;28;20308;-78
2021/11/02 16:10:40;;;;;;;3.93;3.17;;;;;8.30;99467.00;;;;10508027;28;20238;-78
2021/11/02 16:15:43;;;;;;;5.67;3.00;;;;;8.00;99467.00;;;;10524220;28;20189;-77
2021/11/02 16:20:46;;;;;;;5.03;2.37;;;;;7.90;99466.00;;;;10508064;28;20682;-78
2021/11/02 16:26:10;;;;;;;5.53;2.67;;;;;7.70;99472.00;;;;10507577;28;20212;-78
2021/11/02 16:31:23;;;;;;;3.07;2.20;;;;;7.50;99477.00;;;;10515742;28;20196;-77
2021/11/02 16:36:28;;;;;;;3.60;1.83;;;;;7.30;99478.00;;;;10549524;28;20219;-78
2021/11/02 16:41:32;;;;;;;4.30;2.23;;;;;7.10;99478.00;;;;10533841;28;20176;-78
2021/11/02 16:46:39;;;;;;;5.27;2.53;;;;;7.00;99476.00;;;;10566973;28;20216;-77
2021/11/02 16:51:48;;;;;;;4.17;2.43;;;;;6.90;99476.00;;;;10515549;28;20203;-78
2021/11/02 16:57:07;;;;;;;3.40;2.30;;;;;6.80;99483.00;;;;10532456;28;20234;-77
2021/11/02 17:02:27;;;;;;;5.70;2.60;;;;;6.70;99485.00;;;;10490053;28;20204;-77
2021/11/02 17:07:33;;;;;;;2.20;1.97;;;;;6.60;99499.00;;;;10509997;28;20276;-78
2021/11/02 17:12:39;;;;;;;5.03;2.77;;;;;6.60;99503.00;;;;10515407;28;20662;-78
2021/11/02 17:17:42;;;;;;;6.97;2.43;;;;;6.60;99506.00;;;;10530972;28;20712;-78
2021/11/02 17:22:48;;;;;;;7.27;2.57;;;;;6.50;99501.00;;;;10514331;28;20203;-78
2021/11/02 17:27:53;;;;;;;2.73;2.07;;;;;6.40;99513.00;;;;10530493;28;20212;-78
2021/11/02 17:32:56;;;;;;;2.93;2.27;;;;;6.40;99511.00;;;;10539336;28;20217;-77
2021/11/02 17:38:01;;;;;;;5.20;2.83;;;;;6.40;99514.00;;;;10489242;28;20644;-78
2021/11/02 17:43:04;;;;;;;4.10;3.40;;;;;6.40;99527.00;;;;10505776;28;20185;-78
2021/11/02 17:48:06;;;;;;;4.63;2.77;;;;;6.30;99526.00;;;;10544412;28;20209;-78
2021/11/02 17:53:09;;;;;;;5.27;2.83;;;;;6.30;99535.00;;;;10514217;28;20275;-78
2021/11/02 17:58:12;;;;;;;9.53;3.33;;;;;6.30;99545.00;;;;10497376;28;20656;-77
2021/11/02 18:03:15;;;;;;;8.60;3.77;;;;;6.30;99541.00;;;;10497221;28;20725;-77
2021/11/02 18:08:17;;;;;;;4.50;3.87;;;;;6.30;99549.00;;;;10498463;28;20220;-77
2021/11/02 18:13:20;;;;;;;5.93;3.90;;;;;6.30;99561.00;;;;10496565;28;20196;-78
2021/11/02 18:18:25;;;;;;;5.93;4.53;;;;;6.20;99552.00;;;;10496361;28;20644;-77
2021/11/02 18:23:27;;;;;;;11.37;4.97;;;;;6.20;99550.00;;;;10496123;28;20246;-77
2021/11/02 18:28:30;;;;;;;8.30;5.20;;;;;6.10;99550.00;;;;10479542;28;20228;-78
2021/11/02 18:33:34;;;;;;;9.00;6.30;;;;;6.00;99550.00;;;;10537735;28;20196;-77
2021/11/02 18:38:37;;;;;;;10.63;5.70;;;;;6.00;99543.00;;;;10554271;28;20678;-78
2021/11/02 18:43:41;;;;;;;12.63;7.97;;;;;5.90;99535.00;;;;10537701;28;20204;-78
2021/11/02 18:48:43;;;;;;;12.27;7.90;;;;;5.90;99539.00;;;;10520488;28;20224;-78
2021/11/02 18:53:46;;;;;;;10.37;7.97;;;;;5.80;99544.00;;;;10537265;28;20257;-78
2021/11/02 18:58:48;;;;;;;12.57;7.70;;;;;5.70;99544.00;;;;10553226;28;20180;-78
2021/11/02 19:03:52;;;;;;;14.33;8.80;;;;;5.60;99539.00;;;;10536288;28;20200;-78
2021/11/02 19:08:54;;;;;;;10.53;6.83;;;;;5.60;99540.00;;;;10553253;28;20204;-78
2021/11/02 19:13:57;;;;;;;15.63;8.60;;;;;5.60;99542.00;;;;10536269;28;20216;-78
2021/11/02 19:19:00;;;;;;;11.50;8.17;;;;;5.60;99545.00;;;;10535723;28;20196;-78
2021/11/02 19:24:03;;;;;;;10.23;7.60;;;;;5.60;99560.00;;;;10518614;28;20655;-78
2021/11/02 19:29:06;;;;;;;13.13;7.50;;;;;5.60;99542.00;;;;10535876;28;20212;-78
2021/11/02 19:34:08;;;;;;;15.03;8.23;;;;;5.50;99544.00;;;;10552833;28;20196;-78
2021/11/02 19:39:11;;;;;;;11.93;7.67;;;;;5.50;99548.00;;;;10535518;28;20192;-78
2021/11/02 19:44:13;;;;;;;10.97;8.93;;;;;5.40;99541.00;;;;10535329;28;20688;-78
2021/11/02 19:49:16;;;;;;;13.43;9.87;;;;;5.30;99552.00;;;;10551770;28;20791;-78
2021/11/02 19:54:18;;;;;;;13.67;8.60;;;;;5.20;99547.00;;;;10534966;28;20233;-78
2021/11/02 19:59:22;;;;;;;12.60;9.20;;;;;5.20;99560.00;;;;10535021;28;20249;-78
2021/11/02 20:04:24;;;;;;;12.60;8.83;;;;;5.20;99550.00;;;;10517702;28;20196;-77
2021/11/02 20:09:29;;;;;;;11.87;8.67;;;;;5.10;99566.00;;;;10533624;28;20567;-78
2021/11/02 20:14:34;;;;;;;12.40;7.93;;;;;5.10;99577.00;;;;10534141;28;20188;-78
2021/11/02 20:19:36;;;;;;;14.67;8.63;;;;;5.10;99573.00;;;;10533823;28;20551;-78
2021/11/02 20:24:40;;;;;;;13.47;8.70;;;;;5.10;99567.00;;;;10517119;28;20188;-77
2021/11/02 20:29:42;;;;;;;12.80;9.70;;;;;5.10;99570.00;;;;10533446;28;20273;-77
2021/11/02 20:34:44;;;;;;;13.00;9.30;;;;;5.10;99577.00;;;;10549464;28;20600;-78
2021/11/02 20:39:55;;;;;;;14.53;9.00;;;;;5.00;99582.00;;;;10533210;28;20200;-77
2021/11/02 20:44:59;;;;;;;16.60;8.90;;;;;4.90;99592.00;;;;10532775;28;20194;-78
2021/11/02 20:50:02;;;;;;;27.20;11.13;;;;;4.90;99586.00;;;;10549723;28;20204;-77
2021/11/02 20:55:04;;;;;;;16.63;10.40;;;;;4.90;99596.00;;;;10549524;28;20184;-77
2021/11/02 21:00:09;;;;;;;16.20;10.40;;;;;5.00;99583.00;;;;10508844;28;20673;-77
2021/11/02 21:05:11;;;;;;;18.10;12.37;;;;;5.20;99598.00;;;;10531971;28;20532;-77
2021/11/02 21:10:15;;;;;;;16.37;10.90;;;;;5.30;99595.00;;;;10548447;28;20241;-77
2021/11/02 21:15:38;;;;;;;17.67;11.50;;;;;5.50;99595.00;;;;10531573;28;20203;-77
2021/11/02 21:20:40;;;;;;;19.40;11.37;;;;;5.60;99577.00;;;;10514087;28;20200;-78
2021/11/02 21:25:43;;;;;;;19.07;11.43;;;;;5.60;99591.00;;;;10547223;28;20269;-77
2021/11/02 21:30:45;;;;;;;19.07;13.10;;;;;5.70;99591.00;;;;10547598;28;20207;-77
2021/11/02 21:35:48;;;;;;;19.93;12.17;;;;;5.70;99587.00;;;;10547762;28;20195;-77
2021/11/02 21:41:08;;;;;;;27.63;14.20;;;;;5.80;99580.00;;;;10564252;28;20200;-78
2021/11/02 21:46:14;;;;;;;24.80;13.17;;;;;5.80;99589.00;;;;10547197;28;20296;-78
2021/11/02 21:51:16;;;;;;;23.10;12.80;;;;;5.90;99596.00;;;;10564216;28;20305;-77
2021/11/02 21:56:20;;;;;;;21.70;12.67;;;;;5.90;99590.00;;;;10564541;28;20210;-77
2021/11/02 22:01:23;;;;;;;20.27;12.40;;;;;5.90;99585.00;;;;10531137;28;20188;-77
2021/11/02 22:06:26;;;;;;;20.90;11.50;;;;;5.90;99577.00;;;;10530549;28;20220;-77
2021/11/02 22:11:28;;;;;;;15.57;11.60;;;;;6.00;99580.00;;;;10547008;28;20191;-77
2021/11/02 22:16:30;;;;;;;15.47;12.90;;;;;6.00;99585.00;;;;10564092;28;20192;-77
2021/11/02 22:21:32;;;;;;;15.63;11.53;;;;;5.90;99576.00;;;;10546545;28;20237;-78
2021/11/02 22:26:35;;;;;;;15.47;11.23;;;;;5.70;99570.00;;;;10530393;28;20223;-77
2021/11/02 22:31:36;;;;;;;17.53;12.10;;;;;5.60;99570.00;;;;10530579;28;20609;-77
2021/11/02 22:36:39;;;;;;;15.07;11.50;;;;;5.40;99566.00;;;;10537721;28;20192;-77
2021/11/02 22:41:41;;;;;;;17.10;11.80;;;;;5.20;99550.00;;;;10537137;28;20200;-77
2021/11/02 22:46:44;;;;;;;17.60;12.70;;;;;5.00;99550.00;;;;10553924;28;20703;-77
2021/11/02 22:51:52;;;;;;;20.37;12.27;;;;;4.80;99542.00;;;;10537660;28;20188;-78
2021/11/02 22:56:54;;;;;;;19.83;12.30;;;;;4.70;99539.00;;;;10538063;28;20184;-77
2021/11/02 23:01:56;;;;;;;18.40;13.30;;;;;4.70;99538.00;;;;10553547;28;20213;-77
2021/11/02 23:06:58;;;;;;;16.33;12.67;;;;;4.60;99537.00;;;;10570271;28;20575;-77
2021/11/02 23:12:01;;;;;;;19.20;13.70;;;;;4.60;99550.00;;;;10520099;28;20192;-77
2021/11/02 23:17:03;;;;;;;19.43;14.43;;;;;4.60;99560.00;;;;10536685;28;20188;-77
2021/11/02 23:22:17;;;;;;;19.10;15.37;;;;;4.70;99541.00;;;;10536147;28;20188;-77
2021/11/02 23:27:19;;;;;;;22.80;15.17;;;;;4.70;99553.00;;;;10552771;28;20243;-77
2021/11/02 23:32:27;;;;;;;20.73;15.10;;;;;4.60;99544.00;;;;10520111;28;20647;-77
2021/11/02 23:37:34;;;;;;;23.50;14.93;;;;;4.60;99543.00;;;;10519427;28;20636;-77
2021/11/02 23:42:36;;;;;;;23.47;14.10;;;;;4.60;99535.00;;;;10534390;28;20193;-77
2021/11/02 23:47:38;;;;;;;24.30;16.13;;;;;4.60;99534.00;;;;10551627;28;20273;-77
2021/11/02 23:52:41;;;;;;;20.67;14.97;;;;;4.60;99534.00;;;;10534778;28;20188;-78
2021/11/02 23:57:43;;;;;;;23.10;15.87;;;;;4.60;99531.00;;;;10517774;28;20192;-78
